sensor_id;sensor_type;location;lat;lon;timestamp;temperature;humidity
11446;DHT22;5779;64.178;15.432;2022-10-17T00:00:10;2.60;99.90
11446;DHT22;5779;64.178;15.432;2022-10-17T00:02:57;2.60;99.90
11446;DHT22;5779;64.178;15.432;2022-10-17T00:05:45;2.60;99.90
11446;DHT22;5779;64.178;15.432;2022-10-17T00:08:32;2.70;99.90
11446;DHT22;5779;64.178;15.432;2022-10-17T00:11:20;2.60;99.90
11446;DHT22;5779;64.178;15.432;2022-10-17T00:14:09;2.60;99.90
11446;DHT22;5779;64.178;15.432;2022-10-17T00:16:56;2.60;99.90
11446;DHT22;5779;64.178;15.432;2022-10-17T00:19:43;2.60;99.90
11446;DHT22;5779;64.178;15.432;2022-10-17T00:22:30;2.70;99.90
11446;DHT22;5779;64.178;15.432;2022-10-17T00:25:17;2.70;99.90
11446;DHT22;5779;64.178;15.432;2022-10-17T00:28:05;2.80;99.90
11446;DHT22;5779;64.178;15.432;2022-10-17T00:30:56;2.80;99.90
11446;DHT22;5779;64.178;15.432;2022-10-17T00:33:43;3.00;99.90
11446;DHT22;5779;64.178;15.432;2022-10-17T00:36:30;3.10;99.90
11446;DHT22;5779;64.178;15.432;2022-10-17T00:39:19;3.10;99.90
11446;DHT22;5779;64.178;15.432;2022-10-17T00:42:06;3.30;99.90
11446;DHT22;5779;64.178;15.432;2022-10-17T00:45:18;3.20;99.90
11446;DHT22;5779;64.178;15.432;2022-10-17T00:48:08;3.00;99.90
11446;DHT22;5779;64.178;15.432;2022-10-17T00:50:56;3.00;99.90
11446;DHT22;5779;64.178;15.432;2022-10-17T00:53:43;3.10;99.90
11446;DHT22;5779;64.178;15.432;2022-10-17T00:56:30;3.00;99.90
11446;DHT22;5779;64.178;15.432;2022-10-17T00:59:19;3.10;99.90
11446;DHT22;5779;64.178;15.432;2022-10-17T01:02:09;3.10;99.90
11446;DHT22;5779;64.178;15.432;2022-10-17T01:04:57;3.20;99.90
11446;DHT22;5779;64.178;15.432;2022-10-17T01:07:45;3.30;99.90
11446;DHT22;5779;64.178;15.432;2022-10-17T01:10:38;3.20;99.90
11446;DHT22;5779;64.178;15.432;2022-10-17T01:13:30;3.10;99.90
11446;DHT22;5779;64.178;15.432;2022-10-17T01:16:23;2.90;99.90
11446;DHT22;5779;64.178;15.432;2022-10-17T01:19:45;2.90;99.90
11446;DHT22;5779;64.178;15.432;2022-10-17T01:22:41;2.90;99.90
11446;DHT22;5779;64.178;15.432;2022-10-17T01:25:41;2.90;99.90
11446;DHT22;5779;64.178;15.432;2022-10-17T01:29:11;2.90;99.90
11446;DHT22;5779;64.178;15.432;2022-10-17T01:32:06;2.90;99.90
11446;DHT22;5779;64.178;15.432;2022-10-17T01:34:59;2.80;99.90
11446;DHT22;5779;64.178;15.432;2022-10-17T01:37:52;2.90;99.90
11446;DHT22;5779;64.178;15.432;2022-10-17T01:40:44;2.90;99.90
11446;DHT22;5779;64.178;15.432;2022-10-17T01:43:38;3.00;99.90
11446;DHT22;5779;64.178;15.432;2022-10-17T01:46:28;3.00;99.90
11446;DHT22;5779;64.178;15.432;2022-10-17T01:49:21;3.10;99.90
11446;DHT22;5779;64.178;15.432;2022-10-17T01:52:13;3.20;99.90
11446;DHT22;5779;64.178;15.432;2022-10-17T01:55:05;3.30;99.90
11446;DHT22;5779;64.178;15.432;2022-10-17T01:57:56;3.40;99.90
11446;DHT22;5779;64.178;15.432;2022-10-17T02:00:45;3.40;99.90
11446;DHT22;5779;64.178;15.432;2022-10-17T02:03:34;3.40;99.90
11446;DHT22;5779;64.178;15.432;2022-10-17T02:06:23;3.50;99.90
11446;DHT22;5779;64.178;15.432;2022-10-17T02:09:18;3.60;99.90
11446;DHT22;5779;64.178;15.432;2022-10-17T02:12:30;3.60;99.90
11446;DHT22;5779;64.178;15.432;2022-10-17T02:15:40;3.70;99.90
11446;DHT22;5779;64.178;15.432;2022-10-17T02:18:46;3.80;99.90
11446;DHT22;5779;64.178;15.432;2022-10-17T02:21:45;3.80;99.90
11446;DHT22;5779;64.178;15.432;2022-10-17T02:24:41;3.80;99.90
11446;DHT22;5779;64.178;15.432;2022-10-17T02:27:36;3.70;99.90
11446;DHT22;5779;64.178;15.432;2022-10-17T02:30:32;3.40;99.90
11446;DHT22;5779;64.178;15.432;2022-10-17T02:33:23;3.30;99.90
11446;DHT22;5779;64.178;15.432;2022-10-17T02:36:14;3.30;99.90
11446;DHT22;5779;64.178;15.432;2022-10-17T02:39:04;3.10;99.90
11446;DHT22;5779;64.178;15.432;2022-10-17T02:41:52;3.00;99.90
11446;DHT22;5779;64.178;15.432;2022-10-17T02:44:43;3.00;99.90
11446;DHT22;5779;64.178;15.432;2022-10-17T02:47:33;2.90;99.90
11446;DHT22;5779;64.178;15.432;2022-10-17T02:50:26;2.80;99.90
11446;DHT22;5779;64.178;15.432;2022-10-17T02:53:21;2.80;99.90
11446;DHT22;5779;64.178;15.432;2022-10-17T02:56:16;2.80;99.90
11446;DHT22;5779;64.178;15.432;2022-10-17T02:59:05;2.80;99.90
11446;DHT22;5779;64.178;15.432;2022-10-17T03:01:54;2.80;99.90
11446;DHT22;5779;64.178;15.432;2022-10-17T03:04:42;2.70;99.90
11446;DHT22;5779;64.178;15.432;2022-10-17T03:07:29;2.60;99.90
11446;DHT22;5779;64.178;15.432;2022-10-17T03:10:16;2.60;99.90
11446;DHT22;5779;64.178;15.432;2022-10-17T03:13:04;2.60;99.90
11446;DHT22;5779;64.178;15.432;2022-10-17T03:15:51;2.50;99.90
11446;DHT22;5779;64.178;15.432;2022-10-17T03:18:38;2.50;99.90
11446;DHT22;5779;64.178;15.432;2022-10-17T03:21:25;2.50;99.90
11446;DHT22;5779;64.178;15.432;2022-10-17T03:24:11;2.50;99.90
11446;DHT22;5779;64.178;15.432;2022-10-17T03:26:58;2.50;99.90
11446;DHT22;5779;64.178;15.432;2022-10-17T03:29:47;2.50;99.90
11446;DHT22;5779;64.178;15.432;2022-10-17T03:32:34;2.50;99.90
11446;DHT22;5779;64.178;15.432;2022-10-17T03:35:20;2.50;99.90
11446;DHT22;5779;64.178;15.432;2022-10-17T03:38:07;2.50;99.90
11446;DHT22;5779;64.178;15.432;2022-10-17T03:40:55;2.50;99.90
11446;DHT22;5779;64.178;15.432;2022-10-17T03:43:41;2.50;99.90
11446;DHT22;5779;64.178;15.432;2022-10-17T03:46:30;2.30;99.90
11446;DHT22;5779;64.178;15.432;2022-10-17T03:49:17;2.30;99.90
11446;DHT22;5779;64.178;15.432;2022-10-17T03:52:04;2.30;99.90
11446;DHT22;5779;64.178;15.432;2022-10-17T03:54:50;2.20;99.90
11446;DHT22;5779;64.178;15.432;2022-10-17T03:57:37;2.20;99.90
11446;DHT22;5779;64.178;15.432;2022-10-17T04:00:24;2.10;99.90
11446;DHT22;5779;64.178;15.432;2022-10-17T04:03:12;2.10;99.90
11446;DHT22;5779;64.178;15.432;2022-10-17T04:05:59;2.20;99.90
11446;DHT22;5779;64.178;15.432;2022-10-17T04:08:46;2.20;99.90
11446;DHT22;5779;64.178;15.432;2022-10-17T04:11:33;2.10;99.90
11446;DHT22;5779;64.178;15.432;2022-10-17T04:14:20;2.10;99.90
11446;DHT22;5779;64.178;15.432;2022-10-17T04:17:07;2.20;99.90
11446;DHT22;5779;64.178;15.432;2022-10-17T04:19:55;2.20;99.90
11446;DHT22;5779;64.178;15.432;2022-10-17T04:22:42;2.20;99.90
11446;DHT22;5779;64.178;15.432;2022-10-17T04:25:29;2.20;99.90
11446;DHT22;5779;64.178;15.432;2022-10-17T04:28:16;2.30;99.90
11446;DHT22;5779;64.178;15.432;2022-10-17T04:31:04;2.30;99.90
11446;DHT22;5779;64.178;15.432;2022-10-17T04:33:51;2.30;99.90
11446;DHT22;5779;64.178;15.432;2022-10-17T04:36:39;2.30;99.90
11446;DHT22;5779;64.178;15.432;2022-10-17T04:39:26;2.30;99.90
11446;DHT22;5779;64.178;15.432;2022-10-17T04:42:13;2.30;99.90
11446;DHT22;5779;64.178;15.432;2022-10-17T04:45:00;2.30;99.90
11446;DHT22;5779;64.178;15.432;2022-10-17T04:47:47;2.20;99.90
11446;DHT22;5779;64.178;15.432;2022-10-17T04:50:34;2.10;99.90
11446;DHT22;5779;64.178;15.432;2022-10-17T04:53:23;2.20;99.90
11446;DHT22;5779;64.178;15.432;2022-10-17T04:56:12;2.20;99.90
11446;DHT22;5779;64.178;15.432;2022-10-17T04:58:59;2.10;99.90
11446;DHT22;5779;64.178;15.432;2022-10-17T05:01:48;2.10;99.90
11446;DHT22;5779;64.178;15.432;2022-10-17T05:04:34;2.00;99.90
11446;DHT22;5779;64.178;15.432;2022-10-17T05:07:21;2.00;99.90
11446;DHT22;5779;64.178;15.432;2022-10-17T05:10:10;2.10;99.90
11446;DHT22;5779;64.178;15.432;2022-10-17T05:12:59;2.10;99.90
11446;DHT22;5779;64.178;15.432;2022-10-17T05:15:46;2.10;99.90
11446;DHT22;5779;64.178;15.432;2022-10-17T05:18:33;2.10;99.90
11446;DHT22;5779;64.178;15.432;2022-10-17T05:21:21;2.00;99.90
11446;DHT22;5779;64.178;15.432;2022-10-17T05:24:09;1.90;99.90
11446;DHT22;5779;64.178;15.432;2022-10-17T05:26:58;2.10;99.90
11446;DHT22;5779;64.178;15.432;2022-10-17T05:29:45;2.10;99.90
11446;DHT22;5779;64.178;15.432;2022-10-17T05:32:32;2.00;99.90
11446;DHT22;5779;64.178;15.432;2022-10-17T05:35:19;1.90;99.90
11446;DHT22;5779;64.178;15.432;2022-10-17T05:38:05;1.70;99.90
11446;DHT22;5779;64.178;15.432;2022-10-17T05:40:56;1.50;99.90
11446;DHT22;5779;64.178;15.432;2022-10-17T05:43:45;1.40;99.90
11446;DHT22;5779;64.178;15.432;2022-10-17T05:46:32;1.70;99.90
11446;DHT22;5779;64.178;15.432;2022-10-17T05:49:19;2.00;99.90
11446;DHT22;5779;64.178;15.432;2022-10-17T05:52:06;2.20;99.90
11446;DHT22;5779;64.178;15.432;2022-10-17T05:54:53;2.40;99.90
11446;DHT22;5779;64.178;15.432;2022-10-17T05:57:40;2.10;99.90
11446;DHT22;5779;64.178;15.432;2022-10-17T06:00:28;2.30;99.90
11446;DHT22;5779;64.178;15.432;2022-10-17T06:03:15;2.30;99.90
11446;DHT22;5779;64.178;15.432;2022-10-17T06:06:03;2.40;99.90
11446;DHT22;5779;64.178;15.432;2022-10-17T06:08:50;2.30;99.90
11446;DHT22;5779;64.178;15.432;2022-10-17T06:11:37;1.90;99.90
11446;DHT22;5779;64.178;15.432;2022-10-17T06:14:24;1.70;99.90
11446;DHT22;5779;64.178;15.432;2022-10-17T06:17:13;1.70;99.90
11446;DHT22;5779;64.178;15.432;2022-10-17T06:19:59;1.70;99.90
11446;DHT22;5779;64.178;15.432;2022-10-17T06:22:46;1.70;99.90
11446;DHT22;5779;64.178;15.432;2022-10-17T06:25:33;1.90;99.90
11446;DHT22;5779;64.178;15.432;2022-10-17T06:28:20;1.60;99.90
11446;DHT22;5779;64.178;15.432;2022-10-17T06:31:09;1.60;99.90
11446;DHT22;5779;64.178;15.432;2022-10-17T06:33:57;1.80;99.90
11446;DHT22;5779;64.178;15.432;2022-10-17T06:36:44;2.00;99.90
11446;DHT22;5779;64.178;15.432;2022-10-17T06:39:31;2.20;99.90
11446;DHT22;5779;64.178;15.432;2022-10-17T06:42:20;2.30;99.90
11446;DHT22;5779;64.178;15.432;2022-10-17T06:45:07;2.60;99.90
11446;DHT22;5779;64.178;15.432;2022-10-17T06:47:54;2.60;99.90
11446;DHT22;5779;64.178;15.432;2022-10-17T06:50:43;2.60;99.90
11446;DHT22;5779;64.178;15.432;2022-10-17T06:53:32;2.80;99.90
11446;DHT22;5779;64.178;15.432;2022-10-17T06:56:19;2.90;99.90
11446;DHT22;5779;64.178;15.432;2022-10-17T06:59:06;3.00;99.90
11446;DHT22;5779;64.178;15.432;2022-10-17T07:01:52;2.90;99.90
11446;DHT22;5779;64.178;15.432;2022-10-17T07:04:39;3.00;99.90
11446;DHT22;5779;64.178;15.432;2022-10-17T07:07:29;3.30;99.90
11446;DHT22;5779;64.178;15.432;2022-10-17T07:10:16;3.30;99.90
11446;DHT22;5779;64.178;15.432;2022-10-17T07:13:03;3.40;99.90
11446;DHT22;5779;64.178;15.432;2022-10-17T07:15:50;3.30;99.90
11446;DHT22;5779;64.178;15.432;2022-10-17T07:18:41;3.30;99.90
11446;DHT22;5779;64.178;15.432;2022-10-17T07:21:28;3.40;99.90
11446;DHT22;5779;64.178;15.432;2022-10-17T07:24:17;3.40;99.90
11446;DHT22;5779;64.178;15.432;2022-10-17T07:27:04;3.60;99.90
11446;DHT22;5779;64.178;15.432;2022-10-17T07:29:51;3.80;99.90
11446;DHT22;5779;64.178;15.432;2022-10-17T07:32:37;3.90;99.90
11446;DHT22;5779;64.178;15.432;2022-10-17T07:35:24;4.00;99.90
11446;DHT22;5779;64.178;15.432;2022-10-17T07:38:11;4.20;99.90
11446;DHT22;5779;64.178;15.432;2022-10-17T07:41:01;4.20;99.90
11446;DHT22;5779;64.178;15.432;2022-10-17T07:43:48;4.30;99.90
11446;DHT22;5779;64.178;15.432;2022-10-17T07:46:35;4.50;99.90
11446;DHT22;5779;64.178;15.432;2022-10-17T07:49:22;4.50;99.90
11446;DHT22;5779;64.178;15.432;2022-10-17T07:52:09;4.50;99.90
11446;DHT22;5779;64.178;15.432;2022-10-17T07:54:56;4.60;99.90
11446;DHT22;5779;64.178;15.432;2022-10-17T07:57:44;4.60;99.90
11446;DHT22;5779;64.178;15.432;2022-10-17T08:00:32;4.60;99.90
11446;DHT22;5779;64.178;15.432;2022-10-17T08:03:19;4.60;99.90
11446;DHT22;5779;64.178;15.432;2022-10-17T08:06:06;4.60;99.90
11446;DHT22;5779;64.178;15.432;2022-10-17T08:08:52;4.60;99.90
11446;DHT22;5779;64.178;15.432;2022-10-17T08:11:39;4.80;99.90
11446;DHT22;5779;64.178;15.432;2022-10-17T08:14:29;4.80;99.90
11446;DHT22;5779;64.178;15.432;2022-10-17T08:17:16;4.90;99.90
11446;DHT22;5779;64.178;15.432;2022-10-17T08:20:04;5.00;99.90
11446;DHT22;5779;64.178;15.432;2022-10-17T08:22:51;5.10;99.90
11446;DHT22;5779;64.178;15.432;2022-10-17T08:25:38;5.10;99.90
11446;DHT22;5779;64.178;15.432;2022-10-17T08:28:25;5.20;99.90
11446;DHT22;5779;64.178;15.432;2022-10-17T08:31:16;5.30;99.90
11446;DHT22;5779;64.178;15.432;2022-10-17T08:34:03;5.40;99.90
11446;DHT22;5779;64.178;15.432;2022-10-17T08:36:50;5.50;99.90
11446;DHT22;5779;64.178;15.432;2022-10-17T08:39:37;5.60;99.90
11446;DHT22;5779;64.178;15.432;2022-10-17T08:42:36;5.70;99.90
11446;DHT22;5779;64.178;15.432;2022-10-17T08:45:30;5.70;99.90
11446;DHT22;5779;64.178;15.432;2022-10-17T08:48:22;5.90;99.90
11446;DHT22;5779;64.178;15.432;2022-10-17T08:51:14;5.90;99.90
11446;DHT22;5779;64.178;15.432;2022-10-17T08:54:07;5.90;99.90
11446;DHT22;5779;64.178;15.432;2022-10-17T08:56:56;6.10;99.90
11446;DHT22;5779;64.178;15.432;2022-10-17T08:59:44;6.20;99.90
11446;DHT22;5779;64.178;15.432;2022-10-17T09:02:46;6.20;99.90
11446;DHT22;5779;64.178;15.432;2022-10-17T09:05:45;6.30;99.90
11446;DHT22;5779;64.178;15.432;2022-10-17T09:08:41;6.30;99.90
11446;DHT22;5779;64.178;15.432;2022-10-17T09:11:41;6.40;99.90
11446;DHT22;5779;64.178;15.432;2022-10-17T09:17:50;6.50;99.90
11446;DHT22;5779;64.178;15.432;2022-10-17T09:20:43;6.80;99.90
11446;DHT22;5779;64.178;15.432;2022-10-17T09:23:37;6.60;99.90
11446;DHT22;5779;64.178;15.432;2022-10-17T09:26:26;6.60;99.90
11446;DHT22;5779;64.178;15.432;2022-10-17T09:29:21;6.60;99.90
11446;DHT22;5779;64.178;15.432;2022-10-17T09:32:14;6.60;99.90
11446;DHT22;5779;64.178;15.432;2022-10-17T09:35:03;6.60;99.90
11446;DHT22;5779;64.178;15.432;2022-10-17T09:37:52;6.70;99.90
11446;DHT22;5779;64.178;15.432;2022-10-17T09:40:39;6.70;99.90
11446;DHT22;5779;64.178;15.432;2022-10-17T09:43:26;6.80;99.90
11446;DHT22;5779;64.178;15.432;2022-10-17T09:46:17;6.90;99.90
11446;DHT22;5779;64.178;15.432;2022-10-17T09:49:11;6.90;99.90
11446;DHT22;5779;64.178;15.432;2022-10-17T09:52:00;7.00;99.90
11446;DHT22;5779;64.178;15.432;2022-10-17T09:54:51;7.00;99.90
11446;DHT22;5779;64.178;15.432;2022-10-17T09:57:52;7.10;99.90
11446;DHT22;5779;64.178;15.432;2022-10-17T10:00:41;7.20;99.90
11446;DHT22;5779;64.178;15.432;2022-10-17T10:03:28;7.10;99.90
11446;DHT22;5779;64.178;15.432;2022-10-17T10:06:16;7.10;99.90
11446;DHT22;5779;64.178;15.432;2022-10-17T10:09:04;7.20;99.90
11446;DHT22;5779;64.178;15.432;2022-10-17T10:11:55;7.10;99.90
11446;DHT22;5779;64.178;15.432;2022-10-17T10:14:42;7.10;99.90
11446;DHT22;5779;64.178;15.432;2022-10-17T10:17:36;7.20;99.90
11446;DHT22;5779;64.178;15.432;2022-10-17T10:20:34;7.30;99.90
11446;DHT22;5779;64.178;15.432;2022-10-17T10:23:21;7.30;99.90
11446;DHT22;5779;64.178;15.432;2022-10-17T10:26:20;7.20;99.90
11446;DHT22;5779;64.178;15.432;2022-10-17T10:29:20;7.20;99.90
11446;DHT22;5779;64.178;15.432;2022-10-17T10:32:10;7.20;99.90
11446;DHT22;5779;64.178;15.432;2022-10-17T10:35:00;7.30;99.90
11446;DHT22;5779;64.178;15.432;2022-10-17T10:37:49;7.40;99.90
11446;DHT22;5779;64.178;15.432;2022-10-17T10:40:44;7.40;99.90
11446;DHT22;5779;64.178;15.432;2022-10-17T10:43:34;7.30;99.90
11446;DHT22;5779;64.178;15.432;2022-10-17T10:46:25;7.30;99.90
11446;DHT22;5779;64.178;15.432;2022-10-17T10:49:28;7.30;99.90
11446;DHT22;5779;64.178;15.432;2022-10-17T10:52:24;7.30;99.90
11446;DHT22;5779;64.178;15.432;2022-10-17T10:55:20;7.30;99.90
11446;DHT22;5779;64.178;15.432;2022-10-17T10:58:26;7.30;99.90
11446;DHT22;5779;64.178;15.432;2022-10-17T11:01:21;7.20;99.90
11446;DHT22;5779;64.178;15.432;2022-10-17T11:04:22;7.20;99.90
11446;DHT22;5779;64.178;15.432;2022-10-17T11:07:15;7.10;99.90
11446;DHT22;5779;64.178;15.432;2022-10-17T11:10:15;7.10;99.90
11446;DHT22;5779;64.178;15.432;2022-10-17T11:13:08;7.10;99.90
11446;DHT22;5779;64.178;15.432;2022-10-17T11:16:01;7.10;99.90
11446;DHT22;5779;64.178;15.432;2022-10-17T11:18:53;7.20;99.90
11446;DHT22;5779;64.178;15.432;2022-10-17T11:21:46;7.20;99.90
11446;DHT22;5779;64.178;15.432;2022-10-17T11:24:39;7.20;99.90
11446;DHT22;5779;64.178;15.432;2022-10-17T11:27:30;7.30;99.90
11446;DHT22;5779;64.178;15.432;2022-10-17T11:30:17;7.30;99.90
11446;DHT22;5779;64.178;15.432;2022-10-17T11:33:05;7.30;99.90
11446;DHT22;5779;64.178;15.432;2022-10-17T11:35:56;7.30;99.90
11446;DHT22;5779;64.178;15.432;2022-10-17T11:38:49;7.30;99.90
11446;DHT22;5779;64.178;15.432;2022-10-17T11:41:40;7.20;99.90
11446;DHT22;5779;64.178;15.432;2022-10-17T11:44:33;7.20;99.90
11446;DHT22;5779;64.178;15.432;2022-10-17T11:47:30;7.10;99.90
11446;DHT22;5779;64.178;15.432;2022-10-17T11:50:23;6.90;99.90
11446;DHT22;5779;64.178;15.432;2022-10-17T11:53:13;6.90;99.90
11446;DHT22;5779;64.178;15.432;2022-10-17T11:56:04;6.90;99.90
11446;DHT22;5779;64.178;15.432;2022-10-17T11:58:56;6.90;99.90
11446;DHT22;5779;64.178;15.432;2022-10-17T12:01:50;6.90;99.90
11446;DHT22;5779;64.178;15.432;2022-10-17T12:04:47;7.00;99.90
11446;DHT22;5779;64.178;15.432;2022-10-17T12:07:45;7.10;99.90
11446;DHT22;5779;64.178;15.432;2022-10-17T12:10:42;7.00;99.90
11446;DHT22;5779;64.178;15.432;2022-10-17T12:13:52;7.10;99.90
11446;DHT22;5779;64.178;15.432;2022-10-17T12:16:44;7.10;99.90
11446;DHT22;5779;64.178;15.432;2022-10-17T12:19:33;7.20;99.90
11446;DHT22;5779;64.178;15.432;2022-10-17T12:22:24;7.20;99.90
11446;DHT22;5779;64.178;15.432;2022-10-17T12:25:16;7.30;99.90
11446;DHT22;5779;64.178;15.432;2022-10-17T12:28:13;7.50;99.90
11446;DHT22;5779;64.178;15.432;2022-10-17T12:31:05;7.50;99.90
11446;DHT22;5779;64.178;15.432;2022-10-17T12:33:55;7.60;99.90
11446;DHT22;5779;64.178;15.432;2022-10-17T12:36:43;7.60;99.90
11446;DHT22;5779;64.178;15.432;2022-10-17T12:39:48;7.60;99.90
11446;DHT22;5779;64.178;15.432;2022-10-17T12:42:49;7.60;99.90
11446;DHT22;5779;64.178;15.432;2022-10-17T12:45:47;7.60;99.90
11446;DHT22;5779;64.178;15.432;2022-10-17T12:52:38;7.60;99.90
11446;DHT22;5779;64.178;15.432;2022-10-17T12:55:35;7.60;99.90
11446;DHT22;5779;64.178;15.432;2022-10-17T12:58:22;7.60;99.90
11446;DHT22;5779;64.178;15.432;2022-10-17T13:01:16;7.50;99.90
11446;DHT22;5779;64.178;15.432;2022-10-17T13:04:04;7.60;99.90
11446;DHT22;5779;64.178;15.432;2022-10-17T13:06:55;7.50;99.90
11446;DHT22;5779;64.178;15.432;2022-10-17T13:09:44;7.40;99.90
11446;DHT22;5779;64.178;15.432;2022-10-17T13:12:33;7.40;99.90
11446;DHT22;5779;64.178;15.432;2022-10-17T13:15:22;7.40;99.90
11446;DHT22;5779;64.178;15.432;2022-10-17T13:18:17;7.50;99.90
11446;DHT22;5779;64.178;15.432;2022-10-17T13:21:06;7.50;99.90
11446;DHT22;5779;64.178;15.432;2022-10-17T13:23:53;7.60;99.90
11446;DHT22;5779;64.178;15.432;2022-10-17T13:26:44;7.60;99.90
11446;DHT22;5779;64.178;15.432;2022-10-17T13:29:31;7.60;99.90
11446;DHT22;5779;64.178;15.432;2022-10-17T13:32:19;7.80;99.90
11446;DHT22;5779;64.178;15.432;2022-10-17T13:35:09;7.60;99.90
11446;DHT22;5779;64.178;15.432;2022-10-17T13:37:59;7.50;99.90
11446;DHT22;5779;64.178;15.432;2022-10-17T13:40:47;7.50;99.90
11446;DHT22;5779;64.178;15.432;2022-10-17T13:43:36;7.60;99.90
11446;DHT22;5779;64.178;15.432;2022-10-17T13:46:26;7.50;99.90
11446;DHT22;5779;64.178;15.432;2022-10-17T13:49:21;7.40;99.90
11446;DHT22;5779;64.178;15.432;2022-10-17T13:52:16;7.30;99.90
11446;DHT22;5779;64.178;15.432;2022-10-17T13:55:07;7.20;99.90
11446;DHT22;5779;64.178;15.432;2022-10-17T13:58:09;7.10;99.90
11446;DHT22;5779;64.178;15.432;2022-10-17T14:01:01;7.00;99.90
11446;DHT22;5779;64.178;15.432;2022-10-17T14:03:48;6.90;99.90
11446;DHT22;5779;64.178;15.432;2022-10-17T14:06:40;6.80;99.90
11446;DHT22;5779;64.178;15.432;2022-10-17T14:09:28;7.00;99.90
11446;DHT22;5779;64.178;15.432;2022-10-17T14:12:18;7.30;99.90
11446;DHT22;5779;64.178;15.432;2022-10-17T14:15:08;7.30;99.90
11446;DHT22;5779;64.178;15.432;2022-10-17T14:18:02;7.50;99.90
11446;DHT22;5779;64.178;15.432;2022-10-17T14:20:50;7.60;99.90
11446;DHT22;5779;64.178;15.432;2022-10-17T14:23:40;7.50;99.90
11446;DHT22;5779;64.178;15.432;2022-10-17T14:26:27;7.30;99.90
11446;DHT22;5779;64.178;15.432;2022-10-17T14:29:21;7.30;99.90
11446;DHT22;5779;64.178;15.432;2022-10-17T14:32:13;7.40;99.90
11446;DHT22;5779;64.178;15.432;2022-10-17T14:35:04;7.40;99.90
11446;DHT22;5779;64.178;15.432;2022-10-17T14:37:56;7.50;99.90
11446;DHT22;5779;64.178;15.432;2022-10-17T14:40:50;7.30;99.90
11446;DHT22;5779;64.178;15.432;2022-10-17T14:43:37;7.20;99.90
11446;DHT22;5779;64.178;15.432;2022-10-17T14:46:24;7.30;99.90
11446;DHT22;5779;64.178;15.432;2022-10-17T14:49:16;7.20;99.90
11446;DHT22;5779;64.178;15.432;2022-10-17T14:52:25;6.90;99.90
11446;DHT22;5779;64.178;15.432;2022-10-17T14:55:21;7.00;99.90
11446;DHT22;5779;64.178;15.432;2022-10-17T14:58:16;7.10;99.90
11446;DHT22;5779;64.178;15.432;2022-10-17T15:01:03;7.20;99.90
11446;DHT22;5779;64.178;15.432;2022-10-17T15:03:50;7.20;99.90
11446;DHT22;5779;64.178;15.432;2022-10-17T15:06:37;7.30;99.90
11446;DHT22;5779;64.178;15.432;2022-10-17T15:09:26;7.30;99.90
11446;DHT22;5779;64.178;15.432;2022-10-17T15:12:14;7.20;99.90
11446;DHT22;5779;64.178;15.432;2022-10-17T15:15:02;7.20;99.90
11446;DHT22;5779;64.178;15.432;2022-10-17T15:17:49;6.90;99.90
11446;DHT22;5779;64.178;15.432;2022-10-17T15:20:37;6.70;99.90
11446;DHT22;5779;64.178;15.432;2022-10-17T15:23:24;6.70;99.90
11446;DHT22;5779;64.178;15.432;2022-10-17T15:26:15;6.60;99.90
11446;DHT22;5779;64.178;15.432;2022-10-17T15:29:02;6.60;99.90
11446;DHT22;5779;64.178;15.432;2022-10-17T15:31:49;6.60;99.90
11446;DHT22;5779;64.178;15.432;2022-10-17T15:34:36;6.50;99.90
11446;DHT22;5779;64.178;15.432;2022-10-17T15:37:24;6.30;99.90
11446;DHT22;5779;64.178;15.432;2022-10-17T15:40:14;6.20;99.90
11446;DHT22;5779;64.178;15.432;2022-10-17T15:43:02;6.10;99.90
11446;DHT22;5779;64.178;15.432;2022-10-17T15:45:49;6.10;99.90
11446;DHT22;5779;64.178;15.432;2022-10-17T15:48:36;6.20;99.90
11446;DHT22;5779;64.178;15.432;2022-10-17T15:51:23;6.20;99.90
11446;DHT22;5779;64.178;15.432;2022-10-17T15:54:10;6.20;99.90
11446;DHT22;5779;64.178;15.432;2022-10-17T15:56:57;6.30;99.90
11446;DHT22;5779;64.178;15.432;2022-10-17T15:59:45;6.10;99.90
11446;DHT22;5779;64.178;15.432;2022-10-17T16:02:33;6.10;99.90
11446;DHT22;5779;64.178;15.432;2022-10-17T16:05:22;6.00;99.90
11446;DHT22;5779;64.178;15.432;2022-10-17T16:08:09;5.80;99.90
11446;DHT22;5779;64.178;15.432;2022-10-17T16:10:56;5.70;99.90
11446;DHT22;5779;64.178;15.432;2022-10-17T16:13:48;5.60;99.90
11446;DHT22;5779;64.178;15.432;2022-10-17T16:16:37;5.20;99.90
11446;DHT22;5779;64.178;15.432;2022-10-17T16:19:23;4.90;99.90
11446;DHT22;5779;64.178;15.432;2022-10-17T16:22:19;4.70;99.90
11446;DHT22;5779;64.178;15.432;2022-10-17T16:25:09;4.50;99.90
11446;DHT22;5779;64.178;15.432;2022-10-17T16:28:03;4.50;99.90
11446;DHT22;5779;64.178;15.432;2022-10-17T16:30:52;4.60;99.90
11446;DHT22;5779;64.178;15.432;2022-10-17T16:33:40;4.70;99.90
11446;DHT22;5779;64.178;15.432;2022-10-17T16:36:27;4.80;99.90
11446;DHT22;5779;64.178;15.432;2022-10-17T16:39:14;4.90;99.90
11446;DHT22;5779;64.178;15.432;2022-10-17T16:42:01;5.00;99.90
11446;DHT22;5779;64.178;15.432;2022-10-17T16:44:48;5.20;99.90
11446;DHT22;5779;64.178;15.432;2022-10-17T16:47:36;5.30;99.90
11446;DHT22;5779;64.178;15.432;2022-10-17T16:50:24;5.20;99.90
11446;DHT22;5779;64.178;15.432;2022-10-17T16:53:11;5.00;99.90
11446;DHT22;5779;64.178;15.432;2022-10-17T16:55:59;4.90;99.90
11446;DHT22;5779;64.178;15.432;2022-10-17T16:58:46;4.80;99.90
11446;DHT22;5779;64.178;15.432;2022-10-17T17:01:33;4.70;99.90
11446;DHT22;5779;64.178;15.432;2022-10-17T17:04:21;4.70;99.90
11446;DHT22;5779;64.178;15.432;2022-10-17T17:07:10;4.80;99.90
11446;DHT22;5779;64.178;15.432;2022-10-17T17:09:56;5.10;99.90
11446;DHT22;5779;64.178;15.432;2022-10-17T17:12:43;5.20;99.90
11446;DHT22;5779;64.178;15.432;2022-10-17T17:15:30;5.30;99.90
11446;DHT22;5779;64.178;15.432;2022-10-17T17:18:17;5.50;99.90
11446;DHT22;5779;64.178;15.432;2022-10-17T17:21:07;5.30;99.90
11446;DHT22;5779;64.178;15.432;2022-10-17T17:23:57;4.90;99.90
11446;DHT22;5779;64.178;15.432;2022-10-17T17:26:44;4.60;99.90
11446;DHT22;5779;64.178;15.432;2022-10-17T17:29:31;4.50;99.90
11446;DHT22;5779;64.178;15.432;2022-10-17T17:32:18;4.60;99.90
11446;DHT22;5779;64.178;15.432;2022-10-17T17:35:05;4.50;99.90
11446;DHT22;5779;64.178;15.432;2022-10-17T17:37:53;4.50;99.90
11446;DHT22;5779;64.178;15.432;2022-10-17T17:40:45;4.60;99.90
11446;DHT22;5779;64.178;15.432;2022-10-17T17:43:32;4.90;99.90
11446;DHT22;5779;64.178;15.432;2022-10-17T17:46:20;4.50;99.90
11446;DHT22;5779;64.178;15.432;2022-10-17T17:49:08;4.30;99.90
11446;DHT22;5779;64.178;15.432;2022-10-17T17:51:55;4.30;99.90
11446;DHT22;5779;64.178;15.432;2022-10-17T17:54:43;4.20;99.90
11446;DHT22;5779;64.178;15.432;2022-10-17T17:57:31;4.20;99.90
11446;DHT22;5779;64.178;15.432;2022-10-17T18:00:18;4.30;99.90
11446;DHT22;5779;64.178;15.432;2022-10-17T18:03:05;4.40;99.90
11446;DHT22;5779;64.178;15.432;2022-10-17T18:05:53;4.30;99.90
11446;DHT22;5779;64.178;15.432;2022-10-17T18:08:43;4.20;99.90
11446;DHT22;5779;64.178;15.432;2022-10-17T18:11:29;4.30;99.90
11446;DHT22;5779;64.178;15.432;2022-10-17T18:14:18;4.30;99.90
11446;DHT22;5779;64.178;15.432;2022-10-17T18:17:07;4.30;99.90